Time;durP1;ratioP1;P1;durP2;ratioP2;P2;SDS_P1;SDS_P2;PMS_P1;PMS_P2;Temp;Humidity;BMP_temperature;BMP_pressure;BME280_temperature;BME280_humidity;BME280_pressure;Samples;Min_cycle;Max_cycle;Signal;HPM_P1;HPM_P2
2024/03/25 00:01:19;;;;;;;25.23;3.63;;;;;;;;;;5051956;28;20033;-79
2024/03/25 00:03:44;;;;;;;26.95;4.20;;;;;;;;;;5051794;28;20017;-79
2024/03/25 00:06:11;;;;;;;34.15;4.63;;;;;;;;;;5051817;28;20032;-79
2024/03/25 00:08:37;;;;;;;27.27;4.90;;;;;;;;;;5051586;28;20354;-79
2024/03/25 00:11:03;;;;;;;28.95;6.05;;;;;;;;;;5051510;28;20051;-78
2024/03/25 00:13:29;;;;;;;27.98;4.32;;;;;;;;;;5050852;28;20048;-78
2024/03/25 00:15:55;;;;;;;29.02;4.60;;;;;;;;;;5051649;28;20036;-78
2024/03/25 00:18:21;;;;;;;25.50;5.10;;;;;;;;;;5051481;28;20082;-78
2024/03/25 00:20:47;;;;;;;20.55;5.13;;;;;;;;;;5051200;28;20053;-78
2024/03/25 00:23:14;;;;;;;24.85;5.38;;;;;;;;;;5052836;28;20598;-77
2024/03/25 00:25:40;;;;;;;24.63;4.03;;;;;;;;;;5051260;28;20135;-77
2024/03/25 00:28:06;;;;;;;36.38;5.68;;;;;;;;;;5051218;28;20477;-78
2024/03/25 00:30:32;;;;;;;28.17;5.20;;;;;;;;;;5051309;28;20052;-78
2024/03/25 00:32:58;;;;;;;26.33;4.55;;;;;;;;;;5052746;28;20067;-78
2024/03/25 00:35:24;;;;;;;27.80;4.88;;;;;;;;;;5052349;28;20381;-79
2024/03/25 00:37:50;;;;;;;35.92;6.43;;;;;;;;;;5051350;28;20021;-78
2024/03/25 00:40:17;;;;;;;30.08;4.95;;;;;;;;;;5051224;28;20036;-78
2024/03/25 00:42:43;;;;;;;27.13;5.75;;;;;;;;;;5052328;28;20040;-78
2024/03/25 00:45:09;;;;;;;24.77;4.88;;;;;;;;;;5052721;28;20025;-78
2024/03/25 00:47:36;;;;;;;29.30;5.45;;;;;;;;;;5050982;28;20489;-77
2024/03/25 00:50:02;;;;;;;25.13;4.68;;;;;;;;;;5051089;28;20025;-77
2024/03/25 00:52:28;;;;;;;30.83;4.72;;;;;;;;;;5050846;28;20461;-77
2024/03/25 00:54:54;;;;;;;25.10;5.10;;;;;;;;;;5050970;28;20024;-77
2024/03/25 00:57:20;;;;;;;20.83;4.57;;;;;;;;;;5051100;28;20029;-78
2024/03/25 00:59:46;;;;;;;19.88;4.28;;;;;;;;;;5051979;28;20025;-78
2024/03/25 01:02:12;;;;;;;26.05;5.43;;;;;;;;;;5050977;28;20033;-79
2024/03/25 01:04:38;;;;;;;26.77;4.97;;;;;;;;;;5051866;28;20025;-79
2024/03/25 01:07:04;;;;;;;25.15;4.97;;;;;;;;;;5050824;28;20494;-77
2024/03/25 01:09:30;;;;;;;16.40;4.25;;;;;;;;;;5050542;28;20036;-77
2024/03/25 01:11:56;;;;;;;19.70;4.88;;;;;;;;;;5050841;28;20021;-78
2024/03/25 01:14:22;;;;;;;24.17;4.10;;;;;;;;;;5052104;28;20025;-78
2024/03/25 01:16:48;;;;;;;27.67;4.28;;;;;;;;;;5050255;28;20063;-78
2024/03/25 01:19:14;;;;;;;24.00;5.15;;;;;;;;;;5050789;28;20033;-77
2024/03/25 01:21:40;;;;;;;24.95;4.45;;;;;;;;;;5050308;28;20053;-77
2024/03/25 01:24:06;;;;;;;29.67;4.95;;;;;;;;;;5052087;28;20464;-77
2024/03/25 01:26:32;;;;;;;23.38;4.32;;;;;;;;;;5053180;28;20025;-77
2024/03/25 01:28:58;;;;;;;27.27;5.00;;;;;;;;;;5056028;28;20071;-78
2024/03/25 01:31:24;;;;;;;27.25;5.30;;;;;;;;;;5054495;28;20017;-78
2024/03/25 01:33:50;;;;;;;22.98;4.13;;;;;;;;;;5054459;28;20042;-78
2024/03/25 01:36:17;;;;;;;28.10;4.50;;;;;;;;;;5055877;28;20013;-77
2024/03/25 01:38:43;;;;;;;30.70;4.65;;;;;;;;;;5055691;28;20036;-77
2024/03/25 01:41:10;;;;;;;26.10;4.68;;;;;;;;;;5054691;28;20040;-77
2024/03/25 01:43:37;;;;;;;30.25;5.97;;;;;;;;;;5055983;28;20127;-77
2024/03/25 01:46:03;;;;;;;35.78;5.53;;;;;;;;;;5054077;28;20025;-77
2024/03/25 01:48:29;;;;;;;32.35;5.15;;;;;;;;;;5054311;28;20120;-78
2024/03/25 01:50:56;;;;;;;27.30;4.60;;;;;;;;;;5054421;28;20483;-78
2024/03/25 01:53:22;;;;;;;28.45;4.25;;;;;;;;;;5054346;28;20116;-78
2024/03/25 01:55:49;;;;;;;28.48;4.63;;;;;;;;;;5053880;28;20029;-78
2024/03/25 01:58:15;;;;;;;28.40;4.25;;;;;;;;;;5054364;28;20052;-78
2024/03/25 02:00:41;;;;;;;24.75;5.28;;;;;;;;;;5053979;28;20120;-78
2024/03/25 02:03:08;;;;;;;22.63;4.15;;;;;;;;;;5054257;28;20036;-78
2024/03/25 02:05:35;;;;;;;19.88;4.65;;;;;;;;;;5053959;28;20021;-77
2024/03/25 02:08:01;;;;;;;33.53;6.28;;;;;;;;;;5054078;28;20025;-76
2024/03/25 02:10:28;;;;;;;34.55;5.28;;;;;;;;;;5054086;28;20032;-76
2024/03/25 02:12:54;;;;;;;30.33;4.50;;;;;;;;;;5053783;28;20044;-77
2024/03/25 02:15:21;;;;;;;29.58;5.68;;;;;;;;;;5053972;28;20032;-76
2024/03/25 02:17:47;;;;;;;31.90;5.20;;;;;;;;;;5053592;28;20025;-75
2024/03/25 02:20:15;;;;;;;35.35;6.07;;;;;;;;;;5053477;28;20103;-76
2024/03/25 02:22:41;;;;;;;34.90;4.85;;;;;;;;;;5053454;28;20496;-78
2024/03/25 02:25:09;;;;;;;27.63;6.85;;;;;;;;;;5053704;28;20036;-78
2024/03/25 02:27:35;;;;;;;33.63;6.45;;;;;;;;;;5053518;28;20048;-78
2024/03/25 02:30:02;;;;;;;24.25;5.70;;;;;;;;;;5053658;28;20083;-78
2024/03/25 02:32:29;;;;;;;27.75;7.10;;;;;;;;;;5053695;28;20021;-78
2024/03/25 02:34:55;;;;;;;34.15;5.05;;;;;;;;;;5053564;28;20064;-78
2024/03/25 02:37:22;;;;;;;36.20;6.57;;;;;;;;;;5052949;28;20441;-78
2024/03/25 02:39:48;;;;;;;34.38;6.82;;;;;;;;;;5053109;28;20083;-78
2024/03/25 02:42:14;;;;;;;33.15;5.65;;;;;;;;;;5054561;28;20100;-78
2024/03/25 02:44:43;;;;;;;23.63;4.43;;;;;;;;;;5054500;28;20068;-78
2024/03/25 02:47:09;;;;;;;36.03;6.85;;;;;;;;;;5053296;28;20029;-78
2024/03/25 02:49:35;;;;;;;27.92;5.03;;;;;;;;;;5053219;28;20024;-78
2024/03/25 02:52:01;;;;;;;30.45;5.57;;;;;;;;;;5053355;28;20095;-78
2024/03/25 02:54:27;;;;;;;31.73;6.78;;;;;;;;;;5053182;28;20025;-78
2024/03/25 02:56:53;;;;;;;29.30;7.03;;;;;;;;;;5052909;28;20032;-77
2024/03/25 02:59:19;;;;;;;39.72;5.90;;;;;;;;;;5053048;28;20094;-78
2024/03/25 03:01:45;;;;;;;26.38;6.95;;;;;;;;;;5052869;28;20033;-78
2024/03/25 03:04:11;;;;;;;22.17;5.63;;;;;;;;;;5054621;28;20558;-78
2024/03/25 03:06:37;;;;;;;28.88;5.15;;;;;;;;;;5052512;28;20055;-78
2024/03/25 03:09:03;;;;;;;32.22;5.47;;;;;;;;;;5052911;28;20027;-78
2024/03/25 03:11:29;;;;;;;25.60;5.50;;;;;;;;;;5052918;28;20025;-78
2024/03/25 03:13:55;;;;;;;31.38;5.63;;;;;;;;;;5052629;28;20029;-78
2024/03/25 03:16:21;;;;;;;31.95;7.22;;;;;;;;;;5052794;28;20463;-78
2024/03/25 03:18:47;;;;;;;29.27;4.82;;;;;;;;;;5053845;28;20044;-77
2024/03/25 03:21:13;;;;;;;27.10;4.88;;;;;;;;;;5052450;28;20045;-77
2024/03/25 03:23:39;;;;;;;30.83;5.22;;;;;;;;;;5053737;28;20021;-77
2024/03/25 03:26:05;;;;;;;31.08;5.82;;;;;;;;;;5052603;28;20488;-76
2024/03/25 03:28:31;;;;;;;24.98;5.25;;;;;;;;;;5053794;28;20028;-77
2024/03/25 03:30:57;;;;;;;28.98;5.32;;;;;;;;;;5053352;28;20025;-77
2024/03/25 03:33:23;;;;;;;31.42;6.47;;;;;;;;;;5052559;28;20036;-77
2024/03/25 03:35:50;;;;;;;29.85;5.28;;;;;;;;;;5053804;28;20404;-78
2024/03/25 03:38:16;;;;;;;30.02;5.22;;;;;;;;;;5052154;28;20036;-78
2024/03/25 03:40:42;;;;;;;22.25;5.68;;;;;;;;;;5052131;28;20025;-78
2024/03/25 03:43:08;;;;;;;32.90;8.07;;;;;;;;;;5053610;28;20043;-78
2024/03/25 03:45:37;;;;;;;34.72;6.35;;;;;;;;;;5051830;28;20469;-78
2024/03/25 03:48:03;;;;;;;35.22;5.68;;;;;;;;;;5051423;28;20481;-77
2024/03/25 03:50:29;;;;;;;26.67;6.68;;;;;;;;;;5052167;28;20119;-78
2024/03/25 03:52:55;;;;;;;30.27;6.90;;;;;;;;;;5051911;28;20472;-77
2024/03/25 03:55:21;;;;;;;31.02;6.75;;;;;;;;;;5051950;28;20025;-78
2024/03/25 03:57:48;;;;;;;33.60;7.10;;;;;;;;;;5052234;28;20021;-78
2024/03/25 04:00:14;;;;;;;22.52;6.45;;;;;;;;;;5053242;28;20452;-78
2024/03/25 04:02:40;;;;;;;38.85;6.90;;;;;;;;;;5051934;28;20102;-78
2024/03/25 04:05:06;;;;;;;26.23;5.90;;;;;;;;;;5053533;28;20021;-78
2024/03/25 04:07:33;;;;;;;34.30;5.35;;;;;;;;;;5053325;28;20369;-79
2024/03/25 04:09:59;;;;;;;31.95;6.00;;;;;;;;;;5052126;28;20029;-78
2024/03/25 04:12:26;;;;;;;30.33;5.90;;;;;;;;;;5053582;28;20021;-79
2024/03/25 04:14:55;;;;;;;33.25;7.60;;;;;;;;;;5051982;28;20115;-79
2024/03/25 04:17:21;;;;;;;29.30;7.22;;;;;;;;;;5051808;28;20074;-79
2024/03/25 04:19:48;;;;;;;33.83;6.43;;;;;;;;;;5051183;28;20554;-78
2024/03/25 04:22:14;;;;;;;28.35;6.55;;;;;;;;;;5051762;28;20033;-78
2024/03/25 04:24:40;;;;;;;26.08;6.43;;;;;;;;;;5051320;28;20063;-78
2024/03/25 04:27:06;;;;;;;35.13;7.60;;;;;;;;;;5052635;28;20017;-78
2024/03/25 04:29:32;;;;;;;29.20;7.43;;;;;;;;;;5052857;28;20024;-78
2024/03/25 04:31:58;;;;;;;31.50;6.60;;;;;;;;;;5051165;28;20036;-77
2024/03/25 04:34:24;;;;;;;32.47;7.50;;;;;;;;;;5051290;28;20029;-77
2024/03/25 04:36:50;;;;;;;28.10;6.72;;;;;;;;;;5052294;28;20025;-79
2024/03/25 04:39:18;;;;;;;32.33;6.68;;;;;;;;;;5051186;28;20087;-77
2024/03/25 04:41:44;;;;;;;35.53;8.32;;;;;;;;;;5052329;28;20059;-77
2024/03/25 04:44:10;;;;;;;38.60;8.20;;;;;;;;;;5052504;28;20056;-78
2024/03/25 04:46:36;;;;;;;34.15;8.48;;;;;;;;;;5050982;28;20029;-78
2024/03/25 04:49:02;;;;;;;40.05;8.43;;;;;;;;;;5050938;28;20021;-79
2024/03/25 04:51:28;;;;;;;36.95;8.55;;;;;;;;;;5051134;28;20111;-79
2024/03/25 04:53:54;;;;;;;43.33;9.13;;;;;;;;;;5050893;28;20032;-78
2024/03/25 04:56:20;;;;;;;34.97;9.77;;;;;;;;;;5052673;28;20109;-78
2024/03/25 04:58:46;;;;;;;39.97;9.55;;;;;;;;;;5050525;28;20115;-78
2024/03/25 05:01:13;;;;;;;38.50;11.55;;;;;;;;;;5051023;28;20556;-78
2024/03/25 05:03:39;;;;;;;38.60;9.18;;;;;;;;;;5050946;28;20021;-78
2024/03/25 05:06:05;;;;;;;38.63;10.15;;;;;;;;;;5050848;28;20091;-78
2024/03/25 05:08:31;;;;;;;41.78;9.75;;;;;;;;;;5050738;28;20388;-78
2024/03/25 05:10:57;;;;;;;38.33;11.43;;;;;;;;;;5050514;28;20025;-78
2024/03/25 05:13:23;;;;;;;37.50;9.15;;;;;;;;;;5050793;28;20036;-79
2024/03/25 05:15:50;;;;;;;47.03;11.45;;;;;;;;;;5050464;28;20029;-80
2024/03/25 05:18:17;;;;;;;34.85;10.07;;;;;;;;;;5050800;28;20485;-79
2024/03/25 05:20:43;;;;;;;42.60;11.90;;;;;;;;;;5050176;28;20053;-78
2024/03/25 05:23:09;;;;;;;39.72;11.02;;;;;;;;;;5050933;28;20450;-78
2024/03/25 05:25:36;;;;;;;33.03;9.13;;;;;;;;;;5050644;28;20115;-78
2024/03/25 05:28:02;;;;;;;34.47;9.52;;;;;;;;;;5051458;28;20029;-78
2024/03/25 05:30:28;;;;;;;50.67;12.25;;;;;;;;;;5050658;28;20036;-78
2024/03/25 05:32:54;;;;;;;40.80;11.27;;;;;;;;;;5051985;28;20043;-78
2024/03/25 05:35:21;;;;;;;30.88;10.77;;;;;;;;;;5051573;28;20424;-78
2024/03/25 05:37:47;;;;;;;34.88;10.52;;;;;;;;;;5050389;28;20021;-78
2024/03/25 05:40:15;;;;;;;34.92;10.50;;;;;;;;;;5050495;28;20461;-78
2024/03/25 05:42:41;;;;;;;41.95;11.35;;;;;;;;;;5051786;28;20020;-78
2024/03/25 05:45:09;;;;;;;33.30;10.20;;;;;;;;;;5050418;28;20025;-78
2024/03/25 05:47:35;;;;;;;36.85;10.43;;;;;;;;;;5051755;28;20025;-77
2024/03/25 05:50:04;;;;;;;32.58;10.38;;;;;;;;;;5051270;28;20369;-77
2024/03/25 05:52:30;;;;;;;34.45;9.25;;;;;;;;;;5050446;28;20116;-78
2024/03/25 05:54:55;;;;;;;39.97;10.75;;;;;;;;;;5050081;28;20136;-78
2024/03/25 05:57:21;;;;;;;38.58;9.80;;;;;;;;;;5050342;28;20074;-78
2024/03/25 05:59:48;;;;;;;36.83;8.57;;;;;;;;;;5049956;28;20033;-78
2024/03/25 06:02:14;;;;;;;33.85;9.30;;;;;;;;;;5051547;28;20099;-77
2024/03/25 06:04:40;;;;;;;32.63;9.50;;;;;;;;;;5049860;28;20480;-77
2024/03/25 06:07:06;;;;;;;33.67;9.25;;;;;;;;;;5049727;28;20025;-79
2024/03/25 06:09:32;;;;;;;34.42;9.55;;;;;;;;;;5050099;28;20459;-78
2024/03/25 06:11:58;;;;;;;42.47;11.07;;;;;;;;;;5051584;28;20068;-77
2024/03/25 06:14:24;;;;;;;27.45;8.18;;;;;;;;;;5054875;28;20017;-78
2024/03/25 06:16:50;;;;;;;40.78;10.40;;;;;;;;;;5053698;28;20029;-78
2024/03/25 06:19:16;;;;;;;37.13;9.68;;;;;;;;;;5053816;28;20033;-77
2024/03/25 06:21:42;;;;;;;28.42;8.98;;;;;;;;;;5053545;28;20124;-78
2024/03/25 06:24:09;;;;;;;32.35;10.98;;;;;;;;;;5053497;28;20064;-77
2024/03/25 06:26:35;;;;;;;29.23;9.00;;;;;;;;;;5053609;28;20032;-77
2024/03/25 06:29:02;;;;;;;30.83;8.80;;;;;;;;;;5054987;28;20032;-77
2024/03/25 06:34:18;;;;;;;38.42;9.05;;;;;;;;;;5054868;28;20082;-78
2024/03/25 06:36:44;;;;;;;30.45;7.70;;;;;;;;;;5054694;28;20121;-79
2024/03/25 06:39:11;;;;;;;32.78;7.95;;;;;;;;;;5053351;28;20029;-79
2024/03/25 06:41:37;;;;;;;23.88;7.43;;;;;;;;;;5053454;28;20025;-79
2024/03/25 06:44:03;;;;;;;29.48;7.25;;;;;;;;;;5053249;28;20025;-77
2024/03/25 06:46:29;;;;;;;27.02;6.03;;;;;;;;;;5054457;28;20475;-77
2024/03/25 06:48:55;;;;;;;31.02;7.82;;;;;;;;;;5052772;28;20026;-77
2024/03/25 06:51:21;;;;;;;30.00;7.63;;;;;;;;;;5052750;28;20025;-77
2024/03/25 06:53:47;;;;;;;25.92;6.75;;;;;;;;;;5054069;28;20028;-78
2024/03/25 06:56:13;;;;;;;18.70;6.18;;;;;;;;;;5053127;28;20496;-77
2024/03/25 06:58:39;;;;;;;33.85;7.43;;;;;;;;;;5052776;28;20029;-78
2024/03/25 07:01:07;;;;;;;18.23;6.03;;;;;;;;;;5053900;28;20629;-78
2024/03/25 07:03:33;;;;;;;29.35;6.75;;;;;;;;;;5053018;28;20021;-77
2024/03/25 07:06:00;;;;;;;27.05;6.88;;;;;;;;;;5052768;28;20366;-78
2024/03/25 07:08:27;;;;;;;35.42;6.15;;;;;;;;;;5054150;28;20056;-79
2024/03/25 07:10:53;;;;;;;31.17;6.70;;;;;;;;;;5052520;28;20040;-78
2024/03/25 07:13:19;;;;;;;26.63;5.78;;;;;;;;;;5052804;28;20465;-77
2024/03/25 07:15:46;;;;;;;30.92;6.75;;;;;;;;;;5052795;28;20541;-78
2024/03/25 07:18:12;;;;;;;29.13;7.63;;;;;;;;;;5054377;28;20021;-79
2024/03/25 07:20:39;;;;;;;27.90;6.20;;;;;;;;;;5052400;28;20076;-79
2024/03/25 07:23:05;;;;;;;24.67;6.13;;;;;;;;;;5052388;28;20036;-79
2024/03/25 07:25:31;;;;;;;28.88;6.25;;;;;;;;;;5052347;28;20025;-78
2024/03/25 07:27:57;;;;;;;28.63;6.07;;;;;;;;;;5054131;28;20051;-79
2024/03/25 07:30:27;;;;;;;24.02;6.85;;;;;;;;;;5052465;28;20020;-76
2024/03/25 07:32:53;;;;;;;28.90;6.80;;;;;;;;;;5052172;28;20025;-76
2024/03/25 07:35:19;;;;;;;25.45;6.00;;;;;;;;;;5052405;28;20024;-75
2024/03/25 07:37:45;;;;;;;24.85;6.25;;;;;;;;;;5052293;28;20457;-76
2024/03/25 07:40:12;;;;;;;19.33;6.07;;;;;;;;;;5051872;28;20362;-76
2024/03/25 07:42:38;;;;;;;20.35;5.57;;;;;;;;;;5051856;28;20033;-74
2024/03/25 07:45:07;;;;;;;22.98;5.22;;;;;;;;;;5051911;28;20407;-74
2024/03/25 07:47:33;;;;;;;23.35;5.70;;;;;;;;;;5053275;28;20068;-74
2024/03/25 07:50:00;;;;;;;18.13;5.75;;;;;;;;;;5051959;28;20089;-74
2024/03/25 07:52:29;;;;;;;24.75;5.47;;;;;;;;;;5053367;28;20025;-75
2024/03/25 07:54:55;;;;;;;19.33;4.55;;;;;;;;;;5053235;28;20040;-75
2024/03/25 07:57:21;;;;;;;20.15;5.95;;;;;;;;;;5053443;28;20032;-73
2024/03/25 07:59:47;;;;;;;24.83;5.18;;;;;;;;;;5053270;28;20021;-74
2024/03/25 08:02:13;;;;;;;19.88;4.70;;;;;;;;;;5052941;28;20083;-73
2024/03/25 08:04:39;;;;;;;18.08;4.55;;;;;;;;;;5053153;28;20469;-73
2024/03/25 08:07:05;;;;;;;14.23;4.65;;;;;;;;;;5052957;28;20017;-74
2024/03/25 08:09:31;;;;;;;20.08;5.53;;;;;;;;;;5051746;28;20029;-74
2024/03/25 08:11:57;;;;;;;18.27;4.82;;;;;;;;;;5051514;28;20530;-75
2024/03/25 08:14:24;;;;;;;22.40;4.95;;;;;;;;;;5051699;28;20029;-75
2024/03/25 08:16:50;;;;;;;21.10;5.95;;;;;;;;;;5052980;28;20094;-80
2024/03/25 08:19:16;;;;;;;16.30;5.10;;;;;;;;;;5053021;28;20036;-76
2024/03/25 08:21:44;;;;;;;19.30;4.60;;;;;;;;;;5052711;28;20076;-76
2024/03/25 08:24:10;;;;;;;20.38;5.25;;;;;;;;;;5052208;28;20389;-75
2024/03/25 08:26:36;;;;;;;25.77;5.82;;;;;;;;;;5051254;28;20381;-76
2024/03/25 08:29:03;;;;;;;25.90;5.90;;;;;;;;;;5052171;28;20017;-76
2024/03/25 08:31:29;;;;;;;17.92;4.28;;;;;;;;;;5045261;28;20041;-76
2024/03/25 08:33:56;;;;;;;20.45;5.35;;;;;;;;;;5048383;28;20025;-76
2024/03/25 08:36:22;;;;;;;18.85;4.00;;;;;;;;;;5041516;28;20105;-76
2024/03/25 08:38:48;;;;;;;20.90;5.75;;;;;;;;;;5045620;28;20475;-76
2024/03/25 08:41:15;;;;;;;20.45;6.32;;;;;;;;;;5050771;28;20114;-76
2024/03/25 08:43:41;;;;;;;24.33;5.22;;;;;;;;;;5051035;28;20381;-76
2024/03/25 08:46:07;;;;;;;16.20;4.82;;;;;;;;;;5050383;28;20033;-76
2024/03/25 08:48:33;;;;;;;21.60;5.15;;;;;;;;;;5050739;28;20480;-76
2024/03/25 08:50:59;;;;;;;21.58;5.22;;;;;;;;;;5050487;28;20027;-77
2024/03/25 08:53:25;;;;;;;23.15;4.40;;;;;;;;;;5050725;28;20127;-76
2024/03/25 08:55:51;;;;;;;21.55;4.47;;;;;;;;;;5042962;28;20143;-75
2024/03/25 08:58:17;;;;;;;16.38;3.50;;;;;;;;;;5038556;28;20543;-76
2024/03/25 09:00:43;;;;;;;16.85;4.53;;;;;;;;;;5045499;28;20033;-76
2024/03/25 09:03:10;;;;;;;23.73;6.22;;;;;;;;;;5039538;28;20076;-77
2024/03/25 09:05:38;;;;;;;20.67;4.60;;;;;;;;;;5040068;28;20427;-76
2024/03/25 09:08:11;;;;;;;16.65;2.92;;;;;;;;;;5041362;28;20462;-76
2024/03/25 09:13:23;;;;;;;15.68;2.80;;;;;;;;;;5041497;28;20035;-77
2024/03/25 09:15:49;;;;;;;15.93;3.40;;;;;;;;;;5047820;28;20059;-77
2024/03/25 09:18:15;;;;;;;18.67;3.97;;;;;;;;;;5041278;28;20533;-76
2024/03/25 09:20:41;;;;;;;14.65;3.95;;;;;;;;;;5041635;28;20128;-77
2024/03/25 09:23:07;;;;;;;13.90;4.10;;;;;;;;;;5040919;28;20108;-77
2024/03/25 09:25:33;;;;;;;14.35;4.00;;;;;;;;;;5041116;28;20022;-77
2024/03/25 09:28:00;;;;;;;21.70;6.15;;;;;;;;;;5040515;28;20072;-77
2024/03/25 09:30:27;;;;;;;14.55;4.93;;;;;;;;;;5038836;28;20026;-77
2024/03/25 09:32:53;;;;;;;14.95;5.38;;;;;;;;;;5039120;28;20132;-77
2024/03/25 09:35:20;;;;;;;22.85;7.13;;;;;;;;;;5040487;28;20053;-77
2024/03/25 09:37:46;;;;;;;17.88;5.22;;;;;;;;;;5039020;28;20024;-77
2024/03/25 09:40:12;;;;;;;15.50;4.88;;;;;;;;;;5040208;28;20025;-76
2024/03/25 09:42:41;;;;;;;18.67;5.35;;;;;;;;;;5043344;28;20025;-78
2024/03/25 09:45:08;;;;;;;16.97;4.80;;;;;;;;;;5049719;28;20017;-78
2024/03/25 09:47:34;;;;;;;17.77;5.22;;;;;;;;;;5053510;28;20025;-79
2024/03/25 09:50:03;;;;;;;10.38;3.10;;;;;;;;;;5054227;28;20123;-78
2024/03/25 09:52:29;;;;;;;15.68;3.55;;;;;;;;;;5055515;28;20028;-77
2024/03/25 09:54:55;;;;;;;19.15;4.90;;;;;;;;;;5054204;28;20028;-78
2024/03/25 09:57:22;;;;;;;19.25;4.70;;;;;;;;;;5055395;28;20017;-77
2024/03/25 09:59:48;;;;;;;20.98;4.72;;;;;;;;;;5053947;28;20091;-77
2024/03/25 10:02:15;;;;;;;19.63;4.50;;;;;;;;;;5054744;28;20067;-77
2024/03/25 10:04:45;;;;;;;14.60;3.75;;;;;;;;;;5055186;28;20025;-77
2024/03/25 10:07:12;;;;;;;16.88;4.00;;;;;;;;;;5054796;28;20528;-77
2024/03/25 10:09:38;;;;;;;11.40;3.10;;;;;;;;;;5055136;28;20056;-77
2024/03/25 10:12:04;;;;;;;11.18;3.97;;;;;;;;;;5053554;28;20025;-77
2024/03/25 10:14:30;;;;;;;18.85;4.85;;;;;;;;;;5053754;28;20059;-77
2024/03/25 10:16:56;;;;;;;18.58;4.25;;;;;;;;;;5053487;28;20469;-77
2024/03/25 10:19:22;;;;;;;14.48;4.25;;;;;;;;;;5054609;28;20029;-78
2024/03/25 10:21:48;;;;;;;14.68;4.22;;;;;;;;;;5055048;28;20466;-78
2024/03/25 10:24:17;;;;;;;21.17;5.60;;;;;;;;;;5055088;28;20021;-79
2024/03/25 10:26:43;;;;;;;19.27;4.72;;;;;;;;;;5053589;28;20025;-78
2024/03/25 10:29:12;;;;;;;14.70;3.90;;;;;;;;;;5055104;28;20033;-78
2024/03/25 10:31:38;;;;;;;17.38;4.70;;;;;;;;;;5053384;28;20021;-78
2024/03/25 10:34:04;;;;;;;11.35;4.10;;;;;;;;;;5052836;28;20032;-78
2024/03/25 10:36:31;;;;;;;16.58;4.47;;;;;;;;;;5053006;28;20479;-78
2024/03/25 10:38:57;;;;;;;21.33;4.95;;;;;;;;;;5054629;28;20024;-78
2024/03/25 10:41:26;;;;;;;11.73;3.30;;;;;;;;;;5052886;28;20033;-78
2024/03/25 10:43:54;;;;;;;12.13;3.20;;;;;;;;;;5052956;28;20419;-78
2024/03/25 10:46:21;;;;;;;14.20;3.58;;;;;;;;;;5052528;28;20025;-77
2024/03/25 10:49:03;;;;;;;14.10;3.65;;;;;;;;;;5053128;28;20477;-77
2024/03/25 10:51:30;;;;;;;10.50;3.53;;;;;;;;;;5053129;28;20433;-77
2024/03/25 10:53:57;;;;;;;16.20;3.58;;;;;;;;;;5054555;28;20025;-77
2024/03/25 10:56:23;;;;;;;84.93;44.45;;;;;;;;;;5052970;28;20032;-79
2024/03/25 10:58:50;;;;;;;17.55;3.78;;;;;;;;;;5052731;28;20025;-78
2024/03/25 11:01:19;;;;;;;18.75;4.20;;;;;;;;;;5054115;28;20107;-78
2024/03/25 11:03:48;;;;;;;17.50;4.60;;;;;;;;;;5053130;28;20075;-78
2024/03/25 11:06:16;;;;;;;12.18;4.53;;;;;;;;;;5052748;28;20024;-78
2024/03/25 11:08:46;;;;;;;11.27;3.50;;;;;;;;;;5052869;28;20029;-78
2024/03/25 11:11:12;;;;;;;;;;;;;;;;;;5053069;28;20380;-78
2024/03/25 11:13:39;;;;;;;15.40;3.70;;;;;;;;;;5054442;28;19912;-78
2024/03/25 11:16:10;;;;;;;16.77;4.55;;;;;;;;;;5053831;28;20534;-78
2024/03/25 11:18:37;;;;;;;13.15;3.80;;;;;;;;;;5052675;28;20056;-80
2024/03/25 11:21:12;;;;;;;17.73;4.22;;;;;;;;;;5051994;28;20049;-79
2024/03/25 11:23:44;;;;;;;14.18;3.55;;;;;;;;;;5052554;28;20071;-81
2024/03/25 11:26:27;;;;;;;14.35;3.80;;;;;;;;;;5052363;28;20491;-81
2024/03/25 11:28:53;;;;;;;12.40;3.05;;;;;;;;;;5053855;28;20051;-81
2024/03/25 11:31:21;;;;;;;13.20;3.42;;;;;;;;;;5052214;28;20060;-81
2024/03/25 11:33:47;;;;;;;13.45;4.07;;;;;;;;;;5052524;28;20112;-81
2024/03/25 11:36:13;;;;;;;15.20;3.53;;;;;;;;;;5052313;28;20527;-80
2024/03/25 11:38:41;;;;;;;13.38;3.53;;;;;;;;;;5033697;28;20033;-81
2024/03/25 11:41:08;;;;;;;17.30;4.20;;;;;;;;;;5032101;28;20032;-81
2024/03/25 11:43:34;;;;;;;14.98;3.58;;;;;;;;;;5032225;28;20025;-81
2024/03/25 11:46:00;;;;;;;15.57;3.53;;;;;;;;;;5032197;28;20029;-80
2024/03/25 11:48:27;;;;;;;14.05;3.95;;;;;;;;;;5033997;28;20083;-80
2024/03/25 11:50:53;;;;;;;15.68;3.95;;;;;;;;;;5032124;28;20025;-80
2024/03/25 11:53:19;;;;;;;12.80;3.47;;;;;;;;;;5031856;28;20359;-80
2024/03/25 11:55:48;;;;;;;14.77;3.20;;;;;;;;;;5032056;28;20025;-80
2024/03/25 11:58:15;;;;;;;9.43;3.13;;;;;;;;;;5033190;28;20056;-81
2024/03/25 12:00:51;;;;;;;6.82;2.50;;;;;;;;;;5031952;28;20026;-81
2024/03/25 12:03:20;;;;;;;14.38;3.08;;;;;;;;;;5031532;28;20256;-81
2024/03/25 12:05:46;;;;;;;12.77;3.53;;;;;;;;;;5032988;28;20013;-81
2024/03/25 12:08:13;;;;;;;9.20;2.92;;;;;;;;;;5031317;28;20276;-82
2024/03/25 12:13:24;;;;;;;13.63;3.47;;;;;;;;;;5033207;28;20437;-82
2024/03/25 12:15:51;;;;;;;11.93;3.63;;;;;;;;;;5031757;28;20030;-82
2024/03/25 12:18:18;;;;;;;15.10;4.05;;;;;;;;;;5031201;28;20384;-81
2024/03/25 12:20:48;;;;;;;11.15;3.00;;;;;;;;;;5031401;28;20794;-81
2024/03/25 12:23:14;;;;;;;9.77;3.93;;;;;;;;;;5034106;28;20022;-81
2024/03/25 12:25:40;;;;;;;10.27;3.25;;;;;;;;;;5032918;28;20033;-81
2024/03/25 12:28:10;;;;;;;11.77;3.80;;;;;;;;;;5031330;28;20017;-81
2024/03/25 12:30:55;;;;;;;13.27;3.55;;;;;;;;;;5031633;28;20120;-81
2024/03/25 12:33:21;;;;;;;12.75;2.95;;;;;;;;;;5032643;28;20049;-82
2024/03/25 12:35:48;;;;;;;9.45;3.53;;;;;;;;;;5033046;28;20068;-82
2024/03/25 12:38:31;;;;;;;10.27;3.05;;;;;;;;;;5031518;28;20033;-82
2024/03/25 12:41:04;;;;;;;10.32;3.10;;;;;;;;;;5031301;28;20033;-83
2024/03/25 12:43:34;;;;;;;11.07;3.13;;;;;;;;;;5032093;28;20492;-83
2024/03/25 12:46:00;;;;;;;10.02;3.58;;;;;;;;;;5031211;28;20535;-82
2024/03/25 12:48:26;;;;;;;7.88;2.85;;;;;;;;;;5031000;28;20058;-82
2024/03/25 12:50:56;;;;;;;9.68;2.85;;;;;;;;;;5032873;28;20072;-82
2024/03/25 12:53:22;;;;;;;11.30;2.58;;;;;;;;;;5030895;28;20030;-82
2024/03/25 12:55:48;;;;;;;13.57;3.25;;;;;;;;;;5031296;28;20112;-82
2024/03/25 12:58:14;;;;;;;10.20;3.10;;;;;;;;;;5032212;28;20060;-82
2024/03/25 13:00:40;;;;;;;10.13;3.63;;;;;;;;;;5031147;28;20035;-82
2024/03/25 13:03:07;;;;;;;10.48;3.33;;;;;;;;;;5031067;28;20029;-82
2024/03/25 13:05:34;;;;;;;10.82;3.85;;;;;;;;;;5030618;28;20053;-82
2024/03/25 13:08:00;;;;;;;12.60;3.47;;;;;;;;;;5030742;28;20057;-82
2024/03/25 13:10:26;;;;;;;12.15;4.28;;;;;;;;;;5030695;28;20030;-82
2024/03/25 13:12:52;;;;;;;9.40;3.38;;;;;;;;;;5030845;28;20026;-82
2024/03/25 13:15:18;;;;;;;7.95;2.75;;;;;;;;;;5030348;28;20112;-82
2024/03/25 13:17:44;;;;;;;11.20;3.40;;;;;;;;;;5030797;28;20120;-82
2024/03/25 13:20:10;;;;;;;12.85;3.28;;;;;;;;;;5031611;28;20049;-82
2024/03/25 13:22:36;;;;;;;9.35;3.70;;;;;;;;;;5037492;28;20477;-82
2024/03/25 13:25:02;;;;;;;7.57;3.55;;;;;;;;;;5037376;28;20029;-81
2024/03/25 13:27:28;;;;;;;6.10;2.78;;;;;;;;;;5037145;28;20517;-81
2024/03/25 13:29:54;;;;;;;7.22;3.65;;;;;;;;;;5037350;28;20053;-81
2024/03/25 13:32:20;;;;;;;9.15;3.53;;;;;;;;;;5037197;28;20025;-82
2024/03/25 13:34:46;;;;;;;9.70;3.25;;;;;;;;;;5038761;28;20057;-82
2024/03/25 13:37:13;;;;;;;6.80;2.72;;;;;;;;;;5037015;28;20025;-82
2024/03/25 13:39:39;;;;;;;9.38;2.80;;;;;;;;;;5038521;28;20029;-82
2024/03/25 13:42:05;;;;;;;9.38;3.58;;;;;;;;;;5037509;28;20033;-82
2024/03/25 13:44:31;;;;;;;7.13;2.60;;;;;;;;;;5038693;28;20029;-82
2024/03/25 13:46:57;;;;;;;13.60;3.28;;;;;;;;;;5037126;28;20109;-80
2024/03/25 13:49:24;;;;;;;8.23;2.35;;;;;;;;;;5038628;28;20057;-81
2024/03/25 13:51:59;;;;;;;9.07;2.78;;;;;;;;;;5037160;28;20021;-82
2024/03/25 13:54:27;;;;;;;7.55;3.03;;;;;;;;;;5036707;28;20041;-83
2024/03/25 13:56:53;;;;;;;8.15;2.17;;;;;;;;;;5037045;28;20447;-82
2024/03/25 13:59:19;;;;;;;7.85;2.47;;;;;;;;;;5036954;28;20091;-83
2024/03/25 14:01:45;;;;;;;10.68;2.88;;;;;;;;;;5037187;28;20422;-83
2024/03/25 14:04:11;;;;;;;9.50;3.30;;;;;;;;;;5036767;28;20040;-83
2024/03/25 14:06:37;;;;;;;6.80;2.85;;;;;;;;;;5037016;28;20225;-83
2024/03/25 14:09:10;;;;;;;5.93;1.98;;;;;;;;;;5036923;28;20107;-83
2024/03/25 14:11:36;;;;;;;9.65;2.78;;;;;;;;;;5036696;28;20540;-83
2024/03/25 14:14:02;;;;;;;9.60;2.55;;;;;;;;;;5036974;28;20029;-83
2024/03/25 14:16:29;;;;;;;8.02;2.55;;;;;;;;;;5036780;28;20021;-83
2024/03/25 14:18:55;;;;;;;7.22;2.10;;;;;;;;;;5036997;28;20048;-83
2024/03/25 14:21:21;;;;;;;6.35;2.00;;;;;;;;;;5036261;28;20046;-83
2024/03/25 14:23:47;;;;;;;6.53;2.55;;;;;;;;;;5036732;28;20064;-83
2024/03/25 14:26:13;;;;;;;8.05;2.80;;;;;;;;;;5036650;28;20018;-83
2024/03/25 14:28:42;;;;;;;13.10;4.55;;;;;;;;;;5036621;28;20462;-83
2024/03/25 14:31:08;;;;;;;6.78;1.80;;;;;;;;;;5036973;28;20091;-84
2024/03/25 14:33:35;;;;;;;9.95;2.53;;;;;;;;;;5032733;28;20116;-83
2024/03/25 14:36:01;;;;;;;6.65;2.67;;;;;;;;;;5033579;28;20032;-84